Time;durP1;ratioP1;P1;durP2;ratioP2;P2;SDS_P1;SDS_P2;PMS_P1;PMS_P2;Temp;Humidity;BMP_temperature;BMP_pressure;BME280_temperature;BME280_humidity;BME280_pressure;Samples;Min_cycle;Max_cycle;Signal;HPM_P1;HPM_P2
2022/05/02 00:00:15;;;;;;;2.72;2.22;;;11.90;1.00;;;;;;6246316;23;20439;-90
2022/05/02 00:02:42;;;;;;;2.38;1.98;;;11.90;1.00;;;;;;6194868;23;20012;-90
2022/05/02 00:05:10;;;;;;;3.58;1.83;;;11.80;1.00;;;;;;6195225;23;20021;-90
2022/05/02 00:07:37;;;;;;;4.30;1.88;;;11.80;1.00;;;;;;6194672;23;20011;-89
2022/05/02 00:10:06;;;;;;;2.35;1.58;;;11.80;1.00;;;;;;6220196;23;20020;-90
2022/05/02 00:12:33;;;;;;;4.13;2.22;;;11.80;1.00;;;;;;6221003;23;20052;-90
2022/05/02 00:15:01;;;;;;;3.47;2.50;;;11.70;1.00;;;;;;6196346;23;20027;-90
2022/05/02 00:20:13;;;;;;;3.10;2.15;;;11.70;1.00;;;;;;6219550;23;20070;-90
2022/05/02 00:22:40;;;;;;;3.63;1.70;;;11.70;1.00;;;;;;6194801;23;20016;-89
2022/05/02 00:25:08;;;;;;;3.85;1.90;;;11.60;1.00;;;;;;6219110;23;20016;-90
2022/05/02 00:27:38;;;;;;;4.05;1.65;;;11.60;1.00;;;;;;6194639;23;20020;-90
2022/05/02 00:30:07;;;;;;;2.60;1.75;;;11.60;1.00;;;;;;6194382;23;20509;-90
2022/05/02 00:32:34;;;;;;;4.72;2.72;;;11.60;1.00;;;;;;6194412;23;20505;-90
2022/05/02 00:35:02;;;;;;;4.40;2.33;;;11.60;1.00;;;;;;6219109;23;20016;-89
2022/05/02 00:37:30;;;;;;;2.60;1.83;;;11.50;1.00;;;;;;6246328;23;20020;-90
2022/05/02 00:39:57;;;;;;;4.18;2.13;;;11.50;1.00;;;;;;6219625;23;20023;-90
2022/05/02 00:42:24;;;;;;;3.10;1.80;;;11.50;1.00;;;;;;6219511;23;20052;-91
2022/05/02 00:44:51;;;;;;;2.72;2.00;;;11.50;1.00;;;;;;6219823;23;20095;-90
2022/05/02 00:47:20;;;;;;;3.63;2.20;;;11.50;1.00;;;;;;6194686;23;20435;-90
2022/05/02 00:49:48;;;;;;;4.15;1.90;;;11.40;1.00;;;;;;6219483;23;20074;-89
2022/05/02 00:52:17;;;;;;;3.65;2.08;;;11.40;1.00;;;;;;6219551;23;20020;-90
2022/05/02 00:54:45;;;;;;;2.25;1.85;;;11.30;1.00;;;;;;6246594;22;20017;-90
2022/05/02 00:57:14;;;;;;;2.80;2.15;;;11.30;1.00;;;;;;6219115;23;20427;-91
2022/05/02 00:59:42;;;;;;;2.92;1.98;;;11.30;1.00;;;;;;6194635;23;20328;-89
2022/05/02 01:02:12;;;;;;;2.53;1.95;;;11.30;1.00;;;;;;6194498;23;20024;-91
2022/05/02 01:04:39;;;;;;;4.55;1.83;;;11.20;1.00;;;;;;6195788;23;20463;-90
2022/05/02 01:07:10;;;;;;;3.30;2.25;;;11.20;1.00;;;;;;6196696;23;20395;-90
2022/05/02 01:09:49;;;;;;;3.72;1.95;;;11.20;1.00;;;;;;6196425;23;20478;-90
2022/05/02 01:12:24;;;;;;;2.33;1.88;;;11.20;1.00;;;;;;6196907;23;20074;-90
2022/05/02 01:14:53;;;;;;;2.55;2.05;;;11.20;1.00;;;;;;6196360;23;20344;-90
2022/05/02 01:17:21;;;;;;;4.65;2.13;;;11.20;1.00;;;;;;6196077;23;20043;-90
2022/05/02 01:19:50;;;;;;;4.57;2.75;;;11.20;1.00;;;;;;6221406;23;20018;-89
2022/05/02 01:22:17;;;;;;;6.25;2.00;;;11.20;1.00;;;;;;6196577;23;20016;-90
2022/05/02 01:24:48;;;;;;;4.50;2.05;;;11.20;1.00;;;;;;6195940;23;20324;-90
2022/05/02 01:27:17;;;;;;;2.97;2.13;;;11.20;1.00;;;;;;6222263;23;20062;-89
2022/05/02 01:29:45;;;;;;;3.47;2.00;;;11.20;1.00;;;;;;6196506;23;20258;-90
2022/05/02 01:32:15;;;;;;;2.80;2.00;;;11.10;1.00;;;;;;6221706;23;20054;-92
2022/05/02 01:34:45;;;;;;;3.63;2.55;;;11.10;1.00;;;;;;6220922;23;20043;-90
2022/05/02 01:37:14;;;;;;;2.95;2.30;;;11.10;1.00;;;;;;6222032;23;20043;-90
2022/05/02 01:39:42;;;;;;;2.50;2.00;;;11.10;1.00;;;;;;6221058;23;20339;-90
2022/05/02 01:42:11;;;;;;;3.50;1.80;;;11.10;1.00;;;;;;6196173;23;20020;-90
2022/05/02 01:44:39;;;;;;;4.50;2.15;;;11.00;1.00;;;;;;6223820;23;20016;-90
2022/05/02 01:47:08;;;;;;;3.22;2.63;;;11.00;1.00;;;;;;6205892;23;20024;-90
2022/05/02 01:49:36;;;;;;;2.03;1.50;;;11.00;1.00;;;;;;6223665;23;20020;-89
2022/05/02 01:52:03;;;;;;;2.72;1.50;;;11.00;1.00;;;;;;6200314;23;20019;-91
2022/05/02 01:54:30;;;;;;;4.22;2.13;;;10.90;1.00;;;;;;6259754;22;20078;-90
2022/05/02 01:56:57;;;;;;;3.38;1.90;;;10.90;1.00;;;;;;6221689;23;20475;-90
2022/05/02 01:59:24;;;;;;;3.55;2.20;;;10.90;1.00;;;;;;6196068;23;20361;-89
2022/05/02 02:01:51;;;;;;;2.95;1.83;;;10.90;1.00;;;;;;6221381;23;20020;-89
2022/05/02 02:07:05;;;;;;;2.72;2.03;;;10.90;1.00;;;;;;6223395;23;20036;-90
2022/05/02 02:09:32;;;;;;;4.28;1.90;;;10.80;1.00;;;;;;6223296;23;20388;-89
2022/05/02 02:11:59;;;;;;;2.70;1.95;;;10.80;1.00;;;;;;6203091;23;20089;-89
2022/05/02 02:14:26;;;;;;;3.40;1.85;;;10.80;1.00;;;;;;6199072;23;20028;-90
2022/05/02 02:16:53;;;;;;;2.60;2.05;;;10.80;1.00;;;;;;6249707;23;20016;-90
2022/05/02 02:19:20;;;;;;;2.80;2.25;;;10.70;1.00;;;;;;6223817;23;20016;-89
2022/05/02 02:21:47;;;;;;;3.10;1.92;;;10.70;1.00;;;;;;6195588;23;20050;-89
2022/05/02 02:24:14;;;;;;;2.17;1.90;;;10.70;1.00;;;;;;6195533;23;20107;-89
2022/05/02 02:26:41;;;;;;;3.30;1.98;;;10.70;1.00;;;;;;6222287;23;20027;-90
2022/05/02 02:29:09;;;;;;;4.38;2.40;;;10.70;1.00;;;;;;6222377;23;20332;-90
2022/05/02 02:31:35;;;;;;;2.67;2.00;;;10.70;1.00;;;;;;6197573;23;20325;-90
2022/05/02 02:34:03;;;;;;;4.63;2.85;;;10.60;1.00;;;;;;6220148;23;20073;-89
2022/05/02 02:36:30;;;;;;;3.60;1.83;;;10.60;1.00;;;;;;6195402;23;20443;-90
2022/05/02 02:38:57;;;;;;;2.72;2.22;;;10.60;1.00;;;;;;6220772;23;20331;-89
2022/05/02 02:41:23;;;;;;;5.85;2.00;;;10.50;1.00;;;;;;6195454;23;20023;-91
2022/05/02 02:43:50;;;;;;;3.55;1.88;;;10.50;1.00;;;;;;6196882;22;20012;-90
2022/05/02 02:46:17;;;;;;;3.30;1.73;;;10.50;1.00;;;;;;6221000;23;20012;-89
2022/05/02 02:48:45;;;;;;;3.00;1.67;;;10.50;1.00;;;;;;6195142;23;20039;-90
2022/05/02 02:51:12;;;;;;;3.65;2.05;;;10.50;1.00;;;;;;6194953;23;20023;-91
2022/05/02 02:53:39;;;;;;;2.90;2.10;;;10.40;1.00;;;;;;6194851;22;20040;-90
2022/05/02 02:56:06;;;;;;;2.63;1.85;;;10.40;1.00;;;;;;6195379;23;20016;-90
2022/05/02 02:58:33;;;;;;;4.38;1.92;;;10.40;1.00;;;;;;6194760;23;20048;-90
2022/05/02 03:00:59;;;;;;;3.58;2.03;;;10.40;1.00;;;;;;6231541;22;20074;-92
2022/05/02 03:03:27;;;;;;;5.45;2.72;;;10.40;1.00;;;;;;6197984;23;20523;-91
2022/05/02 03:06:04;;;;;;;4.43;2.15;;;10.30;1.00;;;;;;6195103;23;20024;-90
2022/05/02 03:08:44;;;;;;;3.97;2.17;;;10.30;1.00;;;;;;6220522;23;20035;-90
2022/05/02 03:11:11;;;;;;;3.47;2.55;;;10.30;1.00;;;;;;6221670;23;20016;-90
2022/05/02 03:13:38;;;;;;;3.08;2.05;;;10.30;1.00;;;;;;6246834;22;20043;-89
2022/05/02 03:16:06;;;;;;;5.57;2.40;;;10.20;1.00;;;;;;6221254;23;20012;-89
2022/05/02 03:18:34;;;;;;;3.83;2.20;;;10.20;1.00;;;;;;6220292;23;20066;-90
2022/05/02 03:21:01;;;;;;;3.85;2.17;;;10.20;1.00;;;;;;6246830;23;20044;-90
2022/05/02 03:23:28;;;;;;;2.67;1.80;;;10.20;1.00;;;;;;6220776;23;20031;-90
2022/05/02 03:25:57;;;;;;;3.10;1.85;;;10.10;1.00;;;;;;6219262;23;20509;-89
2022/05/02 03:28:25;;;;;;;4.25;1.95;;;10.10;1.00;;;;;;6195318;23;20051;-90
2022/05/02 03:30:52;;;;;;;3.83;2.33;;;10.10;1.00;;;;;;6220535;23;20038;-89
2022/05/02 03:33:19;;;;;;;3.85;2.25;;;10.10;1.00;;;;;;6219864;23;20087;-88
2022/05/02 03:35:46;;;;;;;2.95;1.80;;;10.10;1.00;;;;;;6246786;22;20027;-90
2022/05/02 03:38:13;;;;;;;3.15;2.00;;;10.10;1.00;;;;;;6194820;23;20052;-89
2022/05/02 03:40:40;;;;;;;4.90;2.22;;;10.00;1.00;;;;;;6195040;23;20051;-90
2022/05/02 03:43:07;;;;;;;3.90;2.30;;;10.00;1.00;;;;;;6219398;23;20019;-91
2022/05/02 03:45:37;;;;;;;4.38;2.42;;;10.00;1.00;;;;;;6194853;23;20456;-90
2022/05/02 03:48:04;;;;;;;5.72;2.10;;;10.00;1.00;;;;;;6195123;23;20024;-90
2022/05/02 03:50:31;;;;;;;3.28;2.83;;;10.00;1.00;;;;;;6220021;23;20462;-90
2022/05/02 03:52:58;;;;;;;3.60;2.20;;;9.90;1.00;;;;;;6170281;23;20097;-89
2022/05/02 03:55:26;;;;;;;3.17;2.10;;;9.90;1.00;;;;;;6194880;23;20120;-90
2022/05/02 03:57:53;;;;;;;3.42;2.17;;;9.90;1.00;;;;;;6195602;23;20012;-90
2022/05/02 04:00:20;;;;;;;3.13;1.83;;;9.90;1.00;;;;;;6220149;23;20077;-89
2022/05/02 04:02:52;;;;;;;3.60;2.50;;;9.90;1.00;;;;;;6220460;23;20325;-90
2022/05/02 04:05:20;;;;;;;4.30;2.30;;;9.80;1.00;;;;;;6219621;23;20019;-90
2022/05/02 04:07:47;;;;;;;6.97;2.33;;;9.80;1.00;;;;;;6191598;23;20028;-90
2022/05/02 04:10:14;;;;;;;3.28;2.20;;;9.80;1.00;;;;;;6218551;23;20103;-90
2022/05/02 04:12:42;;;;;;;3.35;2.42;;;9.80;1.00;;;;;;6220090;23;20024;-90
2022/05/02 04:15:11;;;;;;;5.60;2.53;;;9.80;1.00;;;;;;6194924;23;20448;-90
2022/05/02 04:17:39;;;;;;;4.00;2.50;;;9.70;1.00;;;;;;6246911;23;20444;-90
2022/05/02 04:20:08;;;;;;;2.38;1.85;;;9.70;1.00;;;;;;6195645;23;20344;-90
2022/05/02 04:22:35;;;;;;;3.15;2.38;;;9.70;1.00;;;;;;6225239;23;20013;-89
2022/05/02 04:25:03;;;;;;;3.47;2.55;;;9.70;1.00;;;;;;6247697;22;20020;-90
2022/05/02 04:27:30;;;;;;;2.65;2.08;;;9.70;1.00;;;;;;6243181;22;20350;-90
2022/05/02 04:29:57;;;;;;;3.75;2.75;;;9.70;1.00;;;;;;6229230;23;20016;-89
2022/05/02 04:32:27;;;;;;;3.65;2.53;;;9.70;1.00;;;;;;6207925;23;20111;-91
2022/05/02 04:34:56;;;;;;;2.90;2.20;;;9.70;1.00;;;;;;6252615;22;20052;-89
2022/05/02 04:37:23;;;;;;;5.75;2.42;;;9.60;1.00;;;;;;6197214;23;20316;-90
2022/05/02 04:39:53;;;;;;;3.88;2.65;;;9.60;1.00;;;;;;6198426;23;20012;-88
2022/05/02 04:42:21;;;;;;;3.85;2.72;;;9.60;1.00;;;;;;6223608;23;20020;-89
2022/05/02 04:44:48;;;;;;;5.47;2.45;;;9.60;1.00;;;;;;6223109;23;20501;-91
2022/05/02 04:47:16;;;;;;;3.35;2.50;;;9.60;1.00;;;;;;6222964;23;20343;-91
2022/05/02 04:49:53;;;;;;;4.00;2.15;;;9.60;1.00;;;;;;6224213;23;20012;-90
2022/05/02 04:52:23;;;;;;;5.00;2.40;;;9.60;1.00;;;;;;6197748;23;20016;-90
2022/05/02 04:54:50;;;;;;;4.88;2.55;;;9.60;1.00;;;;;;6197160;23;20418;-91
2022/05/02 04:57:20;;;;;;;3.78;2.17;;;9.50;1.00;;;;;;6197423;23;20355;-88
2022/05/02 04:59:47;;;;;;;7.25;2.55;;;9.50;1.00;;;;;;6247850;23;20428;-89
2022/05/02 05:02:14;;;;;;;2.45;1.85;;;9.50;1.00;;;;;;6248751;23;20042;-92
2022/05/02 05:04:41;;;;;;;5.75;3.17;;;9.50;1.00;;;;;;6221062;23;20012;-90
2022/05/02 05:07:09;;;;;;;5.90;3.10;;;9.50;1.00;;;;;;6221842;23;20051;-90
2022/05/02 05:09:36;;;;;;;3.78;2.50;;;9.50;1.00;;;;;;6221626;23;20071;-89
2022/05/02 05:12:38;;;;;;;3.72;2.47;;;9.50;1.00;;;;;;6220850;23;20127;-89
2022/05/02 05:18:31;;;;;;;3.97;2.85;;;9.50;1.00;;;;;;6248412;23;20449;-90
2022/05/02 05:21:44;;;;;;;6.55;3.20;;;9.50;1.00;;;;;;6224325;23;20016;-90
2022/05/02 05:25:21;;;;;;;3.33;2.30;;;9.50;1.00;;;;;;6096501;23;20380;-91
2022/05/02 05:28:24;;;;;;;5.20;2.75;;;9.50;1.00;;;;;;6306991;22;20018;-90
2022/05/02 05:31:06;;;;;;;3.88;2.40;;;9.50;1.00;;;;;;6282087;22;20464;-90
2022/05/02 05:34:04;;;;;;;3.97;2.67;;;9.50;1.00;;;;;;6283621;22;20102;-90
2022/05/02 05:36:35;;;;;;;4.15;2.63;;;9.60;1.00;;;;;;6257063;22;20056;-90
2022/05/02 05:39:10;;;;;;;4.60;2.83;;;9.60;1.00;;;;;;6226759;22;20019;-90
2022/05/02 05:42:22;;;;;;;4.57;3.10;;;9.60;1.00;;;;;;6226885;22;20102;-90
2022/05/02 05:44:57;;;;;;;3.80;2.75;;;9.60;1.00;;;;;;6225543;22;20016;-91
2022/05/02 05:47:41;;;;;;;4.97;3.13;;;9.60;1.00;;;;;;6278647;22;20024;-91
2022/05/02 05:50:33;;;;;;;6.10;3.92;;;9.60;1.00;;;;;;6256982;22;20320;-90
2022/05/02 05:53:47;;;;;;;6.45;4.00;;;9.60;1.00;;;;;;6251671;22;20449;-92
2022/05/02 05:56:52;;;;;;;3.75;3.25;;;9.60;29.80;;;;;;6238365;22;20020;-92
2022/05/02 05:59:57;;;;;;;4.70;2.97;;;9.60;26.70;;;;;;6250752;22;20038;-92
2022/05/02 06:02:35;;;;;;;5.93;3.90;;;9.70;87.30;;;;;;6225870;22;20027;-91
2022/05/02 06:05:11;;;;;;;5.60;3.38;;;9.80;93.60;;;;;;6252447;22;20087;-91
2022/05/02 06:07:51;;;;;;;5.72;3.50;;;9.90;92.80;;;;;;6227112;22;20020;-92
2022/05/02 06:10:24;;;;;;;6.13;3.38;;;10.00;94.10;;;;;;6252108;22;20035;-93
2022/05/02 06:12:56;;;;;;;5.63;3.25;;;10.10;91.50;;;;;;6278420;22;20027;-91
2022/05/02 06:18:37;;;;;;;4.57;3.20;;;10.30;81.20;;;;;;6252162;22;20019;-92
2022/05/02 06:21:16;;;;;;;7.15;3.28;;;10.40;70.00;;;;;;6227650;22;20054;-91
2022/05/02 06:23:51;;;;;;;5.10;3.40;;;10.40;72.10;;;;;;6227639;22;20019;-91
2022/05/02 06:26:53;;;;;;;5.53;3.03;;;10.50;74.00;;;;;;6251682;22;20066;-93
2022/05/02 07:10:25;;;;;;;;;;;;;;;;;;;;;
2022/05/02 07:14:32;;;;;;;;;;;;;;;;;;;;;
2022/05/02 07:17:49;;;;;;;7.38;4.07;;;10.90;30.80;;;;;;6129283;23;20028;-91
2022/05/02 07:21:20;;;;;;;7.90;2.95;;;11.00;22.10;;;;;;6137843;23;20097;-94
2022/05/02 07:24:59;;;;;;;6.95;4.10;;;11.00;13.20;;;;;;6129462;23;20092;-92
2022/05/02 07:28:36;;;;;;;7.18;3.88;;;11.10;11.90;;;;;;6107649;23;20410;-93
2022/05/02 07:31:26;;;;;;;5.22;3.47;;;11.10;1.00;;;;;;6066877;23;20068;-90
2022/05/02 07:34:01;;;;;;;6.72;3.55;;;11.10;1.00;;;;;;6129508;23;20022;-93
2022/05/02 07:36:35;;;;;;;6.28;4.03;;;11.20;1.00;;;;;;6129705;23;20029;-93
2022/05/02 07:39:06;;;;;;;;;;;11.30;1.00;;;;;;6109944;23;20057;-92
2022/05/02 07:41:37;;;;;;;8.68;3.92;;;11.20;1.00;;;;;;6144863;23;19923;-91
2022/05/02 07:44:12;;;;;;;5.68;3.50;;;11.30;1.00;;;;;;6220272;23;20013;-90
2022/05/02 07:46:45;;;;;;;6.78;4.00;;;11.30;1.00;;;;;;6220054;23;20103;-92
2022/05/02 07:49:22;;;;;;;;;;;11.40;1.00;;;;;;6221240;23;20383;-92
2022/05/02 07:52:12;;;;;;;5.35;3.58;;;11.40;1.00;;;;;;6247311;23;19943;-91
2022/05/02 07:54:58;;;;;;;5.68;4.07;;;11.50;1.00;;;;;;6244888;22;20023;-92
2022/05/02 07:57:37;;;;;;;6.90;4.07;;;11.50;1.00;;;;;;6224944;22;20462;-92
2022/05/02 08:00:07;;;;;;;5.85;3.53;;;11.60;1.00;;;;;;6224789;22;20044;-92
2022/05/02 08:02:41;;;;;;;5.57;4.00;;;11.70;1.00;;;;;;6228703;22;20012;-92
2022/05/02 08:05:20;;;;;;;5.50;3.78;;;11.70;1.00;;;;;;6226689;22;20020;-93
2022/05/02 08:08:15;;;;;;;7.15;3.75;;;11.70;1.00;;;;;;6253545;22;20012;-92
2022/05/02 08:11:40;;;;;;;7.22;3.15;;;11.70;1.00;;;;;;6251851;22;20043;-92
2022/05/02 08:14:22;;;;;;;4.55;3.38;;;11.70;1.00;;;;;;6102765;23;20578;-93
2022/05/02 08:17:06;;;;;;;4.63;2.92;;;11.60;1.00;;;;;;6126147;23;20022;-92
2022/05/02 08:20:06;;;;;;;8.05;3.83;;;11.50;1.00;;;;;;6203598;22;20039;-93
2022/05/02 08:29:02;;;;;;;7.47;3.35;;;11.70;1.00;;;;;;6250997;22;20034;-93
2022/05/02 08:31:45;;;;;;;6.95;4.10;;;11.70;1.00;;;;;;6277720;22;20015;-92
2022/05/02 08:34:21;;;;;;;4.28;3.40;;;11.80;1.00;;;;;;6253385;22;20324;-94
2022/05/02 08:36:57;;;;;;;7.32;3.40;;;11.90;1.00;;;;;;6225512;22;20026;-93
2022/05/02 08:39:36;;;;;;;4.43;3.03;;;11.70;1.00;;;;;;6226496;22;20019;-93
2022/05/02 08:42:59;;;;;;;5.82;2.85;;;11.70;1.00;;;;;;6205250;22;20012;-92
2022/05/02 08:46:07;;;;;;;11.90;3.97;;;11.80;1.00;;;;;;6249223;22;20042;-91
2022/05/02 08:52:17;;;;;;;4.18;3.25;;;12.00;1.00;;;;;;6290630;22;20018;-91
2022/05/02 08:55:08;;;;;;;11.32;3.80;;;12.10;1.00;;;;;;6255110;22;20454;-92
2022/05/02 08:58:05;;;;;;;6.07;3.45;;;12.20;1.00;;;;;;6250565;22;20019;-93
2022/05/02 09:00:41;;;;;;;7.38;3.33;;;12.20;1.00;;;;;;6251257;22;20028;-91
2022/05/02 09:03:50;;;;;;;8.38;3.88;;;12.00;1.00;;;;;;6226725;22;20288;-92
2022/05/02 09:06:38;;;;;;;4.43;3.05;;;12.20;1.00;;;;;;6224998;22;20126;-92
2022/05/02 09:09:33;;;;;;;6.63;3.60;;;12.40;1.00;;;;;;6250842;22;20042;-91
2022/05/02 09:12:33;;;;;;;9.15;4.05;;;12.40;1.00;;;;;;6234214;22;20363;-92
2022/05/02 09:15:15;;;;;;;4.50;3.08;;;12.50;1.00;;;;;;6249917;22;20098;-91
2022/05/02 09:18:04;;;;;;;11.73;4.40;;;12.40;1.00;;;;;;6276919;22;20443;-92
2022/05/02 09:20:57;;;;;;;4.85;3.65;;;12.60;1.00;;;;;;6224936;22;20019;-91
2022/05/02 09:23:33;;;;;;;3.85;3.17;;;12.60;1.00;;;;;;6251692;22;20091;-92
2022/05/02 09:26:09;;;;;;;6.30;3.72;;;12.70;1.00;;;;;;6252069;22;20065;-92
2022/05/02 09:28:39;;;;;;;6.57;4.10;;;12.70;1.00;;;;;;6251912;22;20016;-92
2022/05/02 09:31:27;;;;;;;6.90;3.85;;;12.70;1.00;;;;;;6250702;22;20031;-93
2022/05/02 09:34:18;;;;;;;6.00;4.38;;;12.70;1.00;;;;;;6251199;22;20406;-91
2022/05/02 09:36:59;;;;;;;6.65;4.60;;;12.70;1.00;;;;;;6253630;22;20012;-92
2022/05/02 09:39:56;;;;;;;8.60;3.55;;;12.80;1.00;;;;;;6227654;22;20342;-92
2022/05/02 09:42:53;;;;;;;8.57;4.03;;;12.90;1.00;;;;;;6255168;22;20106;-92
2022/05/02 09:49:39;;;;;;;;;;;13.00;1.00;;;;;;6252256;22;20043;-92
2022/05/02 09:52:25;;;;;;;6.43;3.92;;;13.00;1.00;;;;;;6192127;22;20014;-93
2022/05/02 09:58:48;;;;;;;6.63;3.75;;;12.90;1.00;;;;;;6279263;22;20466;-92
2022/05/02 10:01:33;;;;;;;6.55;3.40;;;13.10;1.00;;;;;;6250946;22;20107;-92
2022/05/02 10:04:18;;;;;;;6.60;3.35;;;13.20;1.00;;;;;;6273311;22;20020;-92
2022/05/02 10:07:10;;;;;;;5.55;3.47;;;13.20;1.00;;;;;;6257833;22;20014;-92
2022/05/02 10:09:52;;;;;;;4.82;2.92;;;13.30;1.00;;;;;;6258009;22;20047;-92
2022/05/02 10:12:58;;;;;;;7.85;2.90;;;13.50;1.00;;;;;;6225447;22;20103;-92
2022/05/02 10:16:12;;;;;;;4.78;1.98;;;13.40;1.00;;;;;;6160716;23;20517;-93
2022/05/02 10:19:10;;;;;;;5.03;2.63;;;13.60;1.00;;;;;;6251426;22;20473;-93
2022/05/02 10:22:11;;;;;;;4.75;2.83;;;13.70;1.00;;;;;;6252206;22;20011;-92
2022/05/02 10:25:05;;;;;;;;;;;14.00;1.00;;;;;;6278027;22;20431;-92
2022/05/02 10:28:04;;;;;;;6.10;2.70;;;14.00;1.00;;;;;;6278414;22;19982;-93
2022/05/02 10:30:46;;;;;;;4.35;1.48;;;14.00;1.00;;;;;;6227405;22;20020;-93
2022/05/02 10:33:42;;;;;;;3.43;1.60;;;13.90;1.00;;;;;;6227879;22;20098;-92
2022/05/02 10:36:18;;;;;;;2.47;1.10;;;14.00;1.00;;;;;;6249891;22;20439;-92
2022/05/02 10:39:05;;;;;;;1.00;0.77;;;14.10;1.00;;;;;;6277624;22;20020;-92
2022/05/02 10:41:45;;;;;;;2.55;1.35;;;14.10;1.00;;;;;;6277429;22;20012;-92
2022/05/02 10:44:17;;;;;;;2.40;1.15;;;14.20;1.00;;;;;;6252467;22;20030;-92
2022/05/02 10:46:53;;;;;;;2.38;1.08;;;14.20;1.00;;;;;;6225994;22;20496;-92
2022/05/02 10:50:03;;;;;;;2.38;1.08;;;14.20;1.00;;;;;;6251979;22;20019;-91
2022/05/02 10:53:18;;;;;;;1.27;0.65;;;14.40;1.00;;;;;;6251207;22;20269;-92
2022/05/02 10:56:15;;;;;;;2.25;0.90;;;14.30;1.00;;;;;;6218423;22;20094;-92
2022/05/02 10:58:52;;;;;;;2.60;1.10;;;14.50;1.00;;;;;;6251331;22;20046;-92
2022/05/02 11:01:59;;;;;;;2.00;0.90;;;14.50;1.00;;;;;;6226727;22;20447;-92
2022/05/02 11:04:49;;;;;;;1.48;0.80;;;14.80;1.00;;;;;;6232690;22;20019;-92
2022/05/02 11:07:30;;;;;;;1.63;1.13;;;14.90;1.00;;;;;;6251247;22;20015;-92
2022/05/02 11:10:07;;;;;;;1.65;0.73;;;15.00;1.00;;;;;;6286405;22;20019;-93
2022/05/02 11:12:54;;;;;;;1.30;0.77;;;15.10;1.00;;;;;;6227648;22;20439;-92
2022/05/02 11:24:14;;;;;;;3.03;1.45;;;15.20;1.00;;;;;;6188279;23;20456;-93
2022/05/02 11:28:15;;;;;;;2.78;1.50;;;15.30;1.00;;;;;;6163073;23;20040;-93
2022/05/02 11:35:56;;;;;;;3.65;1.40;;;15.50;1.00;;;;;;6181941;23;20024;-93
2022/05/02 11:39:29;;;;;;;3.05;1.77;;;15.70;1.00;;;;;;6179188;23;20035;-93
2022/05/02 11:42:14;;;;;;;3.72;2.15;;;15.90;1.00;;;;;;6165396;23;20032;-93
2022/05/02 11:45:35;;;;;;;;;;;15.80;1.00;;;;;;6176010;23;20079;-94
2022/05/02 11:53:25;;;;;;;3.25;1.50;;;16.50;1.00;;;;;;6237798;22;20019;-91
2022/05/02 12:01:29;;;;;;;1.83;1.40;;;16.30;1.00;;;;;;6170488;23;20032;-91
2022/05/02 12:05:12;;;;;;;3.70;1.25;;;16.30;1.00;;;;;;6143878;23;20080;-92
2022/05/02 12:13:16;;;;;;;5.25;1.45;;;16.50;1.00;;;;;;6046717;23;20049;-92
2022/05/02 12:20:57;;;;;;;;;;;;;;;;;;;;;
2022/05/02 12:24:14;;;;;;;2.45;0.88;;;17.00;1.00;;;;;;6306646;22;20019;-91
2022/05/02 12:27:34;;;;;;;2.63;0.82;;;17.50;1.00;;;;;;6278039;22;20015;-92
2022/05/02 12:31:29;;;;;;;2.35;1.10;;;17.70;1.00;;;;;;6295957;22;20026;-92
2022/05/02 12:38:44;;;;;;;2.08;0.88;;;17.60;1.00;;;;;;6308439;22;20013;-93
2022/05/02 12:42:26;;;;;;;1.83;1.20;;;17.50;1.00;;;;;;6294522;22;20401;-92
2022/05/02 12:45:32;;;;;;;1.55;1.00;;;17.90;1.00;;;;;;6280293;22;20075;-92
2022/05/02 12:53:06;;;;;;;1.52;0.82;;;17.60;1.00;;;;;;6281686;22;20452;-92
2022/05/02 12:56:32;;;;;;;2.53;0.90;;;18.20;1.00;;;;;;6190851;23;20027;-91
2022/05/02 13:03:34;;;;;;;3.10;0.98;;;18.00;1.00;;;;;;6188963;23;20020;-93
2022/05/02 13:42:02;;;;;;;5.00;1.45;;;19.70;1.00;;;;;;6237101;22;20035;-90
2022/05/02 13:45:11;;;;;;;1.80;1.10;;;19.80;1.00;;;;;;6243623;23;20083;-92
2022/05/02 13:48:36;;;;;;;1.67;1.00;;;19.60;1.00;;;;;;6226210;23;20024;-92
2022/05/02 13:51:52;;;;;;;2.67;1.02;;;19.60;1.00;;;;;;6197486;23;20020;-91
2022/05/02 13:58:32;;;;;;;1.55;0.70;;;20.20;1.00;;;;;;6222637;23;20027;-90
2022/05/02 14:14:55;;;;;;;;;;;;;;;;;;;;;
2022/05/02 14:18:33;;;;;;;1.08;0.57;;;21.10;1.00;;;;;;6125302;23;20069;-91
2022/05/02 14:22:45;;;;;;;2.80;0.60;;;20.60;1.00;;;;;;6079860;23;20118;-91
2022/05/02 14:34:48;;;;;;;1.45;0.82;;;21.10;1.00;;;;;;6235772;22;20071;-88
2022/05/02 14:37:17;;;;;;;1.60;0.90;;;21.10;1.00;;;;;;6251296;22;20019;-90
2022/05/02 14:39:47;;;;;;;2.78;0.93;;;21.20;1.00;;;;;;6278888;22;20019;-92
2022/05/02 14:42:17;;;;;;;1.30;0.80;;;21.40;1.00;;;;;;6280321;22;20019;-89
2022/05/02 14:44:46;;;;;;;1.08;0.70;;;21.40;1.00;;;;;;6246183;22;20024;-91
2022/05/02 14:47:16;;;;;;;3.60;0.90;;;21.50;1.00;;;;;;6220489;23;20048;-91
2022/05/02 14:49:55;;;;;;;2.45;1.10;;;21.70;1.00;;;;;;6171177;23;20094;-92
2022/05/02 14:55:44;;;;;;;1.30;0.77;;;21.70;1.00;;;;;;6247302;22;20490;-88
2022/05/02 14:58:38;;;;;;;1.33;0.73;;;21.90;1.00;;;;;;6196468;23;20018;-92
2022/05/02 15:01:10;;;;;;;1.77;0.82;;;21.60;1.00;;;;;;6246213;23;20047;-83
2022/05/02 15:03:53;;;;;;;1.80;0.88;;;21.50;1.00;;;;;;6219083;22;20047;-83
2022/05/02 15:06:31;;;;;;;1.17;0.80;;;22.00;1.00;;;;;;6246639;23;20383;-84
2022/05/02 15:09:23;;;;;;;1.08;0.63;;;21.40;1.00;;;;;;6246412;23;20023;-81
2022/05/02 15:11:51;;;;;;;;;;;21.10;1.00;;;;;;6247072;23;20087;-82
2022/05/02 15:14:40;;;;;;;1.50;0.77;;;21.40;1.00;;;;;;6246069;22;19921;-85
2022/05/02 15:17:21;;;;;;;2.72;0.98;;;21.40;1.00;;;;;;6222805;23;20031;-84
2022/05/02 15:20:09;;;;;;;1.85;0.90;;;22.10;1.00;;;;;;6246643;23;20351;-84
2022/05/02 15:22:40;;;;;;;1.63;0.80;;;22.80;1.00;;;;;;6219619;23;20020;-84
2022/05/02 15:25:11;;;;;;;1.40;0.70;;;23.00;1.00;;;;;;6246093;22;20023;-83
2022/05/02 15:39:30;;;;;;;1.50;1.00;;;22.60;1.00;;;;;;6246042;23;20038;-84
2022/05/02 15:42:05;;;;;;;2.72;0.90;;;23.00;1.00;;;;;;6246289;23;20024;-84
2022/05/02 15:44:40;;;;;;;1.10;0.80;;;23.00;1.00;;;;;;6245293;22;20023;-84
2022/05/02 15:47:22;;;;;;;1.70;0.90;;;23.80;1.00;;;;;;6246309;23;20020;-84
2022/05/02 15:49:58;;;;;;;3.05;1.17;;;23.90;1.00;;;;;;6246106;23;20019;-83
2022/05/02 15:52:27;;;;;;;1.50;0.82;;;23.30;1.00;;;;;;6246151;23;20099;-84
2022/05/02 15:55:07;;;;;;;2.72;0.93;;;23.60;1.00;;;;;;6245869;22;20316;-84
2022/05/02 15:57:36;;;;;;;1.58;1.13;;;24.30;1.00;;;;;;6227819;23;20043;-85
2022/05/02 16:00:06;;;;;;;1.45;0.90;;;23.40;1.00;;;;;;6227244;23;20106;-84
2022/05/02 16:02:33;;;;;;;1.30;0.98;;;24.00;1.00;;;;;;6219498;23;20016;-84
2022/05/02 16:05:09;;;;;;;2.47;1.10;;;24.10;1.00;;;;;;6193970;23;20063;-84
2022/05/02 16:10:39;;;;;;;1.83;1.05;;;24.30;1.00;;;;;;6245608;23;20024;-87
2022/05/02 16:13:08;;;;;;;1.88;1.08;;;23.70;1.00;;;;;;6246847;23;20022;-84
2022/05/02 16:15:43;;;;;;;1.92;1.23;;;23.60;1.00;;;;;;6219304;23;20102;-84
2022/05/02 16:18:13;;;;;;;3.95;1.23;;;23.50;1.00;;;;;;6219978;23;20020;-91
2022/05/02 16:20:42;;;;;;;1.67;1.30;;;23.60;1.00;;;;;;6219729;23;20095;-90
2022/05/02 16:23:15;;;;;;;1.20;1.02;;;23.30;1.00;;;;;;6220667;23;20016;-91
2022/05/02 16:25:54;;;;;;;1.48;0.93;;;23.40;1.00;;;;;;6221187;23;20439;-89
2022/05/02 16:28:31;;;;;;;1.92;1.08;;;23.10;1.00;;;;;;6221401;23;20028;-90
2022/05/02 16:31:04;;;;;;;2.03;1.00;;;23.20;1.00;;;;;;6219918;23;20095;-90
2022/05/02 16:33:35;;;;;;;1.30;1.13;;;23.00;1.00;;;;;;6248479;23;20023;-91
2022/05/02 16:36:03;;;;;;;1.08;0.85;;;22.60;1.00;;;;;;6248452;22;20730;-90
2022/05/02 16:38:52;;;;;;;4.30;1.30;;;22.60;1.00;;;;;;6222422;23;20016;-91
2022/05/02 16:41:23;;;;;;;5.28;1.55;;;22.30;1.00;;;;;;6248456;23;20397;-90
2022/05/02 16:43:56;;;;;;;1.27;1.00;;;22.00;1.00;;;;;;6247962;22;20016;-89
2022/05/02 16:46:28;;;;;;;5.25;1.98;;;22.20;1.00;;;;;;6221050;23;20020;-90
2022/05/02 16:49:02;;;;;;;4.70;1.65;;;21.70;1.00;;;;;;6196634;23;20071;-90
2022/05/02 16:51:33;;;;;;;2.05;1.40;;;21.30;1.00;;;;;;6221238;23;20073;-90
2022/05/02 16:54:01;;;;;;;1.92;1.20;;;21.10;1.00;;;;;;6196817;22;20028;-90
2022/05/02 16:56:31;;;;;;;1.40;1.00;;;21.40;1.00;;;;;;6222149;23;20020;-90
2022/05/02 16:58:58;;;;;;;2.00;1.17;;;21.50;1.00;;;;;;6222190;23;20024;-90
2022/05/02 17:01:26;;;;;;;2.05;1.25;;;21.60;1.00;;;;;;6221853;23;20507;-91
2022/05/02 17:03:59;;;;;;;3.00;1.60;;;21.30;1.00;;;;;;6195375;22;20070;-90
2022/05/02 17:06:29;;;;;;;1.48;1.13;;;21.00;1.00;;;;;;6247970;23;20016;-91
2022/05/02 17:09:11;;;;;;;4.40;1.40;;;21.10;1.00;;;;;;6221023;23;20024;-91
2022/05/02 17:11:44;;;;;;;2.88;1.58;;;21.00;1.00;;;;;;6221845;23;20024;-90
2022/05/02 17:14:13;;;;;;;2.47;1.30;;;21.10;1.00;;;;;;6221875;23;20024;-90
2022/05/02 17:16:49;;;;;;;2.65;1.52;;;20.90;1.00;;;;;;6248182;23;20020;-91
2022/05/02 17:19:21;;;;;;;3.45;1.85;;;20.40;1.00;;;;;;6197444;23;20024;-90
2022/05/02 17:23:12;;;;;;;2.65;1.65;;;20.50;1.00;;;;;;6173613;23;20024;-90
2022/05/02 17:25:36;;;;;;;2.25;0.98;;;20.50;1.00;;;;;;6216972;23;20020;-89
2022/05/02 17:28:14;;;;;;;2.78;1.80;;;20.40;1.00;;;;;;6222114;23;20343;-90
2022/05/02 17:30:55;;;;;;;2.42;1.20;;;19.70;1.00;;;;;;6248376;23;20359;-91
2022/05/02 17:33:32;;;;;;;2.45;1.35;;;19.40;1.00;;;;;;6196162;23;20024;-91